createdAt,value
2022-12-01T00:03:29.362Z,3.98
2022-12-01T00:08:33.016Z,3.94
2022-12-01T00:13:36.656Z,3.91
2022-12-01T00:18:39.064Z,3.92
2022-12-01T00:23:48.895Z,3.94
2022-12-01T00:28:53.057Z,4.00
2022-12-01T00:33:55.747Z,3.97
2022-12-01T00:38:58.378Z,3.91
2022-12-01T00:44:00.673Z,3.88
2022-12-01T00:49:03.331Z,3.89
2022-12-01T00:54:05.668Z,3.88
2022-12-01T00:59:07.943Z,3.82
2022-12-01T01:04:10.298Z,3.80
2022-12-01T01:09:13.958Z,3.76
2022-12-01T01:14:16.290Z,3.75
2022-12-01T01:19:18.648Z,3.82
2022-12-01T01:24:20.945Z,3.79
2022-12-01T01:29:23.286Z,3.76
2022-12-01T01:34:25.592Z,3.77
2022-12-01T01:39:28.021Z,3.74
2022-12-01T01:44:53.469Z,3.73
2022-12-01T01:49:58.641Z,3.70
2022-12-01T01:55:01.064Z,3.74
2022-12-01T02:00:10.732Z,3.74
2022-12-01T02:05:21.012Z,3.79
2022-12-01T02:10:41.870Z,3.80
2022-12-01T02:15:46.838Z,3.75
2022-12-01T02:21:13.646Z,3.83
2022-12-01T02:26:49.943Z,3.87
2022-12-01T02:32:13.354Z,3.85
2022-12-01T02:37:43.710Z,3.85
2022-12-01T02:43:03.071Z,3.86
2022-12-01T02:48:12.118Z,3.82
2022-12-01T02:53:18.841Z,3.80
2022-12-01T02:58:21.920Z,3.83
2022-12-01T03:03:40.207Z,3.83
2022-12-01T03:09:04.559Z,3.81
2022-12-01T03:14:14.837Z,3.80
2022-12-01T03:19:41.094Z,3.75
2022-12-01T03:24:48.053Z,3.77
2022-12-01T03:29:53.200Z,3.76
2022-12-01T03:35:01.287Z,3.73
2022-12-01T03:40:10.190Z,3.75
2022-12-01T03:45:20.055Z,3.71
2022-12-01T03:50:31.396Z,3.70
2022-12-01T03:55:41.067Z,3.66
2022-12-01T04:00:45.896Z,3.67
2022-12-01T04:05:48.456Z,3.66
2022-12-01T04:10:50.968Z,3.63
2022-12-01T04:15:54.507Z,3.61
2022-12-01T04:20:56.851Z,3.60
2022-12-01T04:26:00.566Z,3.61
2022-12-01T04:31:02.999Z,3.61
2022-12-01T04:36:05.883Z,3.61
2022-12-01T04:41:12.493Z,3.63
2022-12-01T04:46:15.455Z,3.60
2022-12-01T04:51:18.120Z,3.59
2022-12-01T04:56:20.810Z,3.56
2022-12-01T05:01:23.162Z,3.60
2022-12-01T05:06:27.716Z,3.54
2022-12-01T05:11:31.254Z,3.46
2022-12-01T05:16:34.405Z,3.51
2022-12-01T05:21:36.672Z,3.46
2022-12-01T05:26:39.308Z,3.40
2022-12-01T05:31:41.723Z,3.42
2022-12-01T05:36:44.127Z,3.43
2022-12-01T05:41:46.407Z,3.40
2022-12-01T05:46:48.676Z,3.38
2022-12-01T05:51:51.016Z,3.32
2022-12-01T05:56:53.351Z,3.27
2022-12-01T06:01:55.722Z,3.33
2022-12-01T06:06:58.049Z,3.36
2022-12-01T06:12:00.432Z,3.43
2022-12-01T06:17:02.791Z,3.49
2022-12-01T06:22:05.187Z,3.50
2022-12-01T06:27:07.462Z,3.52
2022-12-01T06:32:10.041Z,3.53
2022-12-01T06:37:12.413Z,3.54
2022-12-01T06:42:14.720Z,3.52
2022-12-01T06:47:17.024Z,3.52
2022-12-01T06:52:19.311Z,3.55
2022-12-01T06:57:21.660Z,3.52
2022-12-01T07:02:24.370Z,3.51
2022-12-01T07:07:26.753Z,3.49
2022-12-01T07:12:32.660Z,3.47
2022-12-01T07:17:35.930Z,3.46
2022-12-01T07:22:38.168Z,3.49
2022-12-01T07:27:40.412Z,3.44
2022-12-01T07:32:42.678Z,3.47
2022-12-01T07:37:45.016Z,3.51
2022-12-01T07:42:47.339Z,3.50
2022-12-01T07:47:52.841Z,3.53
2022-12-01T07:52:55.146Z,3.58
2022-12-01T07:57:59.904Z,3.61
2022-12-01T08:03:02.380Z,3.64
2022-12-01T08:08:05.230Z,3.69
2022-12-01T08:13:07.614Z,3.74
2022-12-01T08:18:10.363Z,3.80
2022-12-01T08:23:12.842Z,3.87
2022-12-01T08:28:15.191Z,3.87
2022-12-01T08:33:17.505Z,3.96
2022-12-01T08:38:19.825Z,4.02
2022-12-01T08:43:49.411Z,4.06
2022-12-01T08:48:44.466Z,4.10
2022-12-01T08:53:48.731Z,4.12
2022-12-01T08:58:51.863Z,4.17
2022-12-01T09:03:55.824Z,4.22
2022-12-01T09:09:01.214Z,4.28
2022-12-01T09:14:03.719Z,4.38
2022-12-01T09:19:06.821Z,4.44
2022-12-01T09:24:14.291Z,4.48
2022-12-01T09:29:17.243Z,4.52
2022-12-01T09:34:20.609Z,4.63
2022-12-01T09:39:23.023Z,4.64
2022-12-01T09:44:30.313Z,4.64
2022-12-01T09:49:44.544Z,4.66
2022-12-01T09:54:47.809Z,4.62
2022-12-01T09:59:51.545Z,4.64
2022-12-01T10:04:56.759Z,4.69
2022-12-01T10:10:03.898Z,4.64
2022-12-01T10:15:24.575Z,4.72
2022-12-01T10:20:42.285Z,4.73
2022-12-01T10:26:14.823Z,4.79
2022-12-01T10:31:30.907Z,4.82
2022-12-01T10:36:34.254Z,4.86
2022-12-01T10:41:37.874Z,4.86
2022-12-01T10:46:49.340Z,4.85
2022-12-01T10:51:58.300Z,4.85
2022-12-01T10:57:01.632Z,4.80
2022-12-01T11:02:05.934Z,4.88
2022-12-01T11:07:16.278Z,4.98
2022-12-01T11:12:18.916Z,5.07
2022-12-01T11:17:23.890Z,5.21
2022-12-01T11:22:31.096Z,5.34
2022-12-01T11:27:50.852Z,5.40
2022-12-01T11:33:02.511Z,5.46
2022-12-01T11:38:29.245Z,5.42
2022-12-01T11:43:33.775Z,5.51
2022-12-01T11:48:36.677Z,5.46
2022-12-01T11:53:41.850Z,5.50
2022-12-01T11:58:46.643Z,5.49
2022-12-01T12:04:27.761Z,5.48
2022-12-01T12:09:51.809Z,5.52
2022-12-01T12:14:59.679Z,5.60
2022-12-01T12:20:20.427Z,5.56
2022-12-01T12:25:31.742Z,5.58
2022-12-01T12:30:46.564Z,5.40
2022-12-01T12:36:07.533Z,5.33
2022-12-01T12:41:33.676Z,5.40
2022-12-01T12:46:50.142Z,5.36
2022-12-01T12:51:55.602Z,5.27
2022-12-01T12:57:05.918Z,5.26
2022-12-01T13:02:26.160Z,5.23
2022-12-01T13:07:46.173Z,5.13
2022-12-01T13:13:01.536Z,5.06
2022-12-01T13:18:17.201Z,4.88
2022-12-01T13:23:20.145Z,4.84
2022-12-01T13:28:30.938Z,4.85
2022-12-01T13:33:34.361Z,4.79
2022-12-01T13:38:38.459Z,4.79
2022-12-01T13:44:06.749Z,4.77
2022-12-01T13:49:39.291Z,4.76
2022-12-01T13:55:07.707Z,4.72
2022-12-01T14:00:28.214Z,4.63
2022-12-01T14:05:39.784Z,4.55
2022-12-01T14:10:56.867Z,4.42
2022-12-01T14:16:02.478Z,4.35
2022-12-01T14:21:08.107Z,4.33
2022-12-01T14:26:15.892Z,4.27
2022-12-01T14:31:18.293Z,4.18
2022-12-01T14:36:23.332Z,4.28
2022-12-01T14:41:33.388Z,4.25
2022-12-01T14:46:43.890Z,4.09
2022-12-01T14:51:49.859Z,4.03
2022-12-01T14:56:55.973Z,4.16
2022-12-01T15:02:06.537Z,4.01
2022-12-01T15:07:08.923Z,3.90
2022-12-01T15:12:25.985Z,3.86
2022-12-01T15:17:33.595Z,3.80
2022-12-01T15:22:35.952Z,3.87
2022-12-01T15:27:38.255Z,3.79
2022-12-01T15:32:43.720Z,3.68
2022-12-01T15:37:47.608Z,3.60
2022-12-01T15:43:07.433Z,3.50
2022-12-01T15:48:24.163Z,3.44
2022-12-01T15:53:29.889Z,3.44
2022-12-01T15:58:35.840Z,3.52
2022-12-01T16:04:01.192Z,3.57
2022-12-01T16:09:40.383Z,3.57
2022-12-01T16:15:01.047Z,3.60
2022-12-01T16:20:40.747Z,3.58
2022-12-01T16:25:45.364Z,3.58
2022-12-01T16:30:48.000Z,3.49
2022-12-01T16:35:50.914Z,3.44
2022-12-01T16:40:55.759Z,3.42
2022-12-01T16:46:00.765Z,3.53
2022-12-01T16:51:05.532Z,3.53
2022-12-01T16:56:12.633Z,3.51
2022-12-01T17:01:15.020Z,3.39
2022-12-01T17:06:19.718Z,3.34
2022-12-01T17:11:22.043Z,3.25
2022-12-01T17:16:24.437Z,3.28
2022-12-01T17:21:27.007Z,3.25
2022-12-01T17:26:29.288Z,3.22
2022-12-01T17:31:31.643Z,3.22
2022-12-01T17:36:34.069Z,3.32
2022-12-01T17:41:36.411Z,3.30
2022-12-01T17:46:38.810Z,3.34
2022-12-01T17:51:41.261Z,3.33
2022-12-01T17:56:43.703Z,3.31
2022-12-01T18:01:46.076Z,3.27
2022-12-01T18:06:53.767Z,3.20
2022-12-01T18:11:57.103Z,3.31
2022-12-01T18:16:59.478Z,3.32
2022-12-01T18:22:01.808Z,3.25
2022-12-01T18:27:04.238Z,3.24
2022-12-01T18:32:06.727Z,3.26
2022-12-01T18:37:09.067Z,3.23
2022-12-01T18:42:11.388Z,3.25
2022-12-01T18:47:13.786Z,3.23
2022-12-01T18:52:16.266Z,3.17
2022-12-01T18:57:18.533Z,3.15
2022-12-01T19:02:20.926Z,3.16
2022-12-01T19:07:29.352Z,3.10
2022-12-01T19:12:36.397Z,3.10
2022-12-01T19:17:41.770Z,3.12
2022-12-01T19:22:44.119Z,3.06
2022-12-01T19:27:46.605Z,2.98
2022-12-01T19:32:48.940Z,3.00
2022-12-01T19:37:51.257Z,2.97
2022-12-01T19:42:53.692Z,2.93
2022-12-01T19:47:56.007Z,2.91
2022-12-01T19:52:58.317Z,2.91
2022-12-01T19:58:00.630Z,2.81
2022-12-01T20:03:03.036Z,2.76
2022-12-01T20:08:05.533Z,2.62
2022-12-01T20:13:08.446Z,2.63
2022-12-01T20:18:10.707Z,2.52
2022-12-01T20:23:12.970Z,2.52
2022-12-01T20:28:15.313Z,2.47
2022-12-01T20:33:17.932Z,2.37
2022-12-01T20:38:27.056Z,2.35
2022-12-01T20:43:30.059Z,2.24
2022-12-01T20:48:32.753Z,2.33
2022-12-01T20:53:35.956Z,2.17
2022-12-01T20:58:39.540Z,2.07
2022-12-01T21:03:43.533Z,1.99
2022-12-01T21:08:48.444Z,1.99
2022-12-01T21:13:50.769Z,1.94
2022-12-01T21:18:54.442Z,1.92
2022-12-01T21:24:08.482Z,2.01
2022-12-01T21:29:25.718Z,1.91
2022-12-01T21:34:28.952Z,1.97
2022-12-01T21:39:31.260Z,1.84
2022-12-01T21:44:37.285Z,1.74
2022-12-01T21:49:39.646Z,1.79
2022-12-01T21:54:41.952Z,1.71
2022-12-01T21:59:44.296Z,1.67
2022-12-01T22:04:46.789Z,1.71
2022-12-01T22:09:49.572Z,1.74
2022-12-01T22:14:58.724Z,1.76
2022-12-01T22:20:01.931Z,1.84
2022-12-01T22:25:18.611Z,1.80
2022-12-01T22:30:22.875Z,1.76
2022-12-01T22:35:38.747Z,1.75
2022-12-01T22:40:41.060Z,1.74
2022-12-01T22:45:48.534Z,1.68
2022-12-01T22:50:52.022Z,1.67
2022-12-01T22:55:57.220Z,1.74
2022-12-01T23:01:14.202Z,1.75
2022-12-01T23:07:04.464Z,1.73
2022-12-01T23:12:09.806Z,1.78
2022-12-01T23:17:30.294Z,1.88
2022-12-01T23:22:32.659Z,1.87
2022-12-01T23:27:35.224Z,1.81
2022-12-01T23:32:37.917Z,1.85
2022-12-01T23:37:42.655Z,1.74
2022-12-01T23:42:45.000Z,1.60
2022-12-01T23:47:47.697Z,1.59
2022-12-01T23:52:50.250Z,1.49
2022-12-01T23:57:53.101Z,1.42
